Kezdőlap
METAR-TAF:

METAR-TAF

Repülőterek :

Ermelo, Dél-afrikai Köztársaság

földrajzi szélesség: 26-29-44S, földrajzi hosszúság: 29-58-47E, magasság: 1737 m

Jelenlegi meteorológiai megfigyelések

A jelentés 17 órával és 5 perccel ezelõtt készült, 08:49 UTC
Nyugat-északnyugati szél 16 kt
Hőmérséklet 17°C
Páratartalom 42%
Légköri nyomás 1027 hPa
Látótávolság 10 km, vagy több
felhőtlen 1500 m magasságban, és nincs gomolyfelhõ

METAR: FAEO 220849Z 30016KT CAVOK 17/04 Q1027

Idő: 03:54 (01:54 UTC)


TAF: hiányzik

Meteorológiai megfigyelések és előrejelzések több, mint 4000 repülőtéren (METAR és TAF jelentéseket).

A térképen piros és sárga pontok jelzik az elérhető meteorológiai állomásokat.

Mozgassa az egeret a pont fölött, hogy megjelenjen az állomás neve.

Azután kattintson az időjárási megfigyelések és előrejelzések megtekintéséhez.

A térkép megváltoztatása: kattintson a fekete keresztel jelölt zöld gombra ráközelítéshez, a vonallal jelölt zöld gombra távolításhoz, vagy a zöld nyilakra a szomszédos térképek eléréséhez.


METAR-TAF: